createdAt,value
2018-08-01T00:00:20.476Z,43.10
2018-08-01T00:02:48.990Z,43.40
2018-08-01T00:05:16.844Z,43.10
2018-08-01T00:07:45.415Z,42.90
2018-08-01T00:10:19.010Z,43.00
2018-08-01T00:12:48.456Z,43.00
2018-08-01T00:15:16.288Z,43.00
2018-08-01T00:17:45.859Z,42.20
2018-08-01T00:20:14.038Z,43.50
2018-08-01T00:22:42.910Z,43.00
2018-08-01T00:25:11.714Z,43.00
2018-08-01T00:27:40.755Z,43.00
2018-08-01T00:30:09.899Z,42.30
2018-08-01T00:32:39.377Z,42.80
2018-08-01T00:35:07.324Z,42.50
2018-08-01T00:37:36.561Z,43.00
2018-08-01T00:40:05.754Z,43.00
2018-08-01T00:45:03.375Z,43.00
2018-08-01T00:47:32.071Z,42.90
2018-08-01T00:50:01.443Z,43.10
2018-08-01T00:52:30.833Z,43.10
2018-08-01T00:54:59.378Z,43.50
2018-08-01T00:57:27.350Z,42.20
2018-08-01T00:59:55.525Z,42.90
2018-08-01T01:02:24.007Z,42.90
2018-08-01T01:04:51.930Z,43.10
2018-08-01T01:07:21.721Z,42.90
2018-08-01T01:12:18.136Z,43.30
2018-08-01T01:19:44.397Z,42.80
2018-08-01T01:22:12.233Z,43.40
2018-08-01T01:24:40.156Z,43.20
2018-08-01T01:27:08.596Z,42.90
2018-08-01T01:29:36.684Z,43.40
2018-08-01T01:32:04.802Z,43.70
2018-08-01T01:34:35.611Z,44.00
2018-08-01T01:37:03.613Z,45.10
2018-08-01T01:42:01.895Z,44.20
2018-08-01T01:46:58.320Z,44.30
2018-08-01T01:49:27.090Z,44.50
2018-08-01T01:51:55.328Z,44.60
2018-08-01T01:54:24.359Z,45.00
2018-08-01T01:56:52.155Z,44.50
2018-08-01T01:59:22.500Z,44.00
2018-08-01T02:01:51.099Z,44.20
2018-08-01T02:04:19.129Z,44.30
2018-08-01T02:06:47.505Z,43.90
2018-08-01T02:09:15.485Z,43.90
2018-08-01T02:11:44.084Z,44.80
2018-08-01T02:14:12.620Z,44.80
2018-08-01T02:16:41.428Z,45.40
2018-08-01T02:19:10.596Z,45.00
2018-08-01T02:21:39.829Z,45.70
2018-08-01T02:24:07.713Z,45.20
2018-08-01T02:26:36.895Z,45.70
2018-08-01T02:29:05.490Z,45.70
2018-08-01T02:31:34.796Z,45.70
2018-08-01T02:36:31.643Z,45.70
2018-08-01T02:43:56.177Z,45.90
2018-08-01T02:46:24.895Z,46.10
2018-08-01T02:51:20.466Z,46.50
2018-08-01T02:53:49.136Z,47.00
2018-08-01T02:56:17.113Z,46.20
2018-08-01T02:58:45.666Z,46.60
2018-08-01T03:03:42.365Z,46.00
2018-08-01T03:06:12.295Z,45.90
2018-08-01T03:08:40.836Z,45.70
2018-08-01T03:11:08.729Z,45.90
2018-08-01T03:13:37.541Z,46.80
2018-08-01T03:16:05.725Z,46.60
2018-08-01T03:18:33.883Z,46.20
2018-08-01T03:21:02.499Z,46.80
2018-08-01T03:23:31.661Z,46.80
2018-08-01T03:26:00.901Z,46.80
2018-08-01T03:28:29.463Z,46.80
2018-08-01T03:30:57.525Z,47.10
2018-08-01T03:33:26.158Z,47.40
2018-08-01T03:35:54.697Z,47.40
2018-08-01T03:38:22.482Z,47.70
2018-08-01T03:40:50.428Z,48.10
2018-08-01T03:43:18.893Z,48.40
2018-08-01T03:45:47.231Z,49.10
2018-08-01T03:50:45.425Z,50.00
2018-08-01T03:53:14.165Z,51.10
2018-08-01T03:55:43.187Z,51.30
2018-08-01T03:58:11.120Z,50.60
2018-08-01T04:00:39.659Z,51.10
2018-08-01T04:03:08.301Z,51.80
2018-08-01T04:05:36.296Z,51.70
2018-08-01T04:08:05.172Z,52.00
2018-08-01T04:10:33.867Z,53.10
2018-08-01T04:17:57.974Z,52.90
2018-08-01T04:20:26.862Z,52.70
2018-08-01T04:22:55.592Z,52.80
2018-08-01T04:25:23.351Z,53.00
2018-08-01T04:27:53.385Z,53.40
2018-08-01T04:30:21.400Z,54.10
2018-08-01T04:32:49.354Z,54.00
2018-08-01T04:35:17.836Z,54.70
2018-08-01T04:37:45.657Z,53.60
2018-08-01T04:40:14.432Z,54.20
2018-08-01T04:42:43.404Z,54.60
2018-08-01T04:47:40.579Z,54.50
2018-08-01T04:50:08.532Z,54.20
2018-08-01T04:52:38.927Z,54.60
2018-08-01T04:57:35.716Z,54.60
2018-08-01T05:00:04.695Z,54.60
2018-08-01T05:02:32.900Z,54.30
2018-08-01T05:05:00.766Z,54.40
2018-08-01T05:07:28.989Z,54.00
2018-08-01T05:09:57.946Z,54.30
2018-08-01T05:12:25.935Z,54.60
2018-08-01T05:17:23.288Z,54.70
2018-08-01T05:19:51.088Z,54.70
2018-08-01T05:22:20.219Z,54.20
2018-08-01T05:24:49.394Z,54.50
2018-08-01T05:27:17.966Z,54.00
2018-08-01T05:29:45.866Z,53.70
2018-08-01T05:32:14.429Z,54.60
2018-08-01T05:34:43.227Z,53.30
2018-08-01T05:37:11.957Z,53.90
2018-08-01T05:39:41.383Z,53.90
2018-08-01T05:42:10.277Z,54.70
2018-08-01T05:44:38.812Z,56.00
2018-08-01T05:47:06.736Z,56.60
2018-08-01T05:52:03.205Z,55.30
2018-08-01T05:54:31.272Z,54.60
2018-08-01T05:56:59.761Z,54.70
2018-08-01T05:59:33.990Z,54.40
2018-08-01T06:02:03.194Z,54.60
2018-08-01T06:04:32.357Z,54.40
2018-08-01T06:07:00.282Z,54.40
2018-08-01T06:09:28.916Z,54.80
2018-08-01T06:11:57.452Z,54.20
2018-08-01T06:14:25.791Z,54.30
2018-08-01T06:16:55.431Z,53.70
2018-08-01T06:19:24.269Z,54.10
2018-08-01T06:24:20.665Z,54.80
2018-08-01T06:26:48.636Z,54.30
2018-08-01T06:29:19.396Z,53.40
2018-08-01T06:31:50.868Z,51.40
2018-08-01T06:34:19.291Z,51.40
2018-08-01T06:36:47.694Z,50.00
2018-08-01T06:39:15.678Z,49.30
2018-08-01T06:41:43.535Z,49.30
2018-08-01T06:44:11.441Z,48.90
2018-08-01T06:46:41.329Z,49.30
2018-08-01T06:49:10.617Z,48.80
2018-08-01T06:54:07.247Z,50.60
2018-08-01T06:56:35.920Z,51.80
2018-08-01T06:59:04.382Z,51.50
2018-08-01T07:01:34.217Z,53.20
2018-08-01T07:04:03.033Z,53.00
2018-08-01T07:06:31.396Z,54.50
2018-08-01T07:09:00.050Z,54.20
2018-08-01T07:11:27.886Z,54.10
2018-08-01T07:13:56.423Z,51.70
2018-08-01T07:16:25.471Z,52.50
2018-08-01T07:18:54.016Z,52.90
2018-08-01T07:21:22.175Z,54.10
2018-08-01T07:23:50.084Z,54.20
2018-08-01T07:26:18.512Z,52.60
2018-08-01T07:28:47.162Z,51.70
2018-08-01T07:31:16.294Z,50.60
2018-08-01T07:33:45.588Z,48.80
2018-08-01T07:36:14.750Z,48.80
2018-08-01T07:41:11.804Z,48.50
2018-08-01T07:43:39.764Z,47.20
2018-08-01T07:46:07.889Z,45.90
2018-08-01T07:51:04.612Z,47.30
2018-08-01T07:53:34.349Z,47.30
2018-08-01T07:56:03.984Z,48.20
2018-08-01T07:58:32.515Z,48.70
2018-08-01T08:01:02.034Z,49.60
2018-08-01T08:03:30.913Z,49.10
2018-08-01T08:06:06.917Z,48.60
2018-08-01T08:08:35.922Z,49.20
2018-08-01T08:11:03.839Z,48.00
2018-08-01T08:13:32.521Z,48.70
2018-08-01T08:16:03.367Z,49.30
2018-08-01T08:21:00.095Z,50.50
2018-08-01T08:23:28.177Z,50.00
2018-08-01T08:25:56.062Z,49.30
2018-08-01T08:28:24.131Z,49.90
2018-08-01T08:30:52.322Z,49.50
2018-08-01T08:33:20.736Z,50.00
2018-08-01T08:35:49.383Z,49.40
2018-08-01T08:38:18.672Z,49.60
2018-08-01T08:40:47.848Z,48.60
2018-08-01T08:43:16.491Z,47.40
2018-08-01T08:45:45.086Z,46.50
2018-08-01T08:48:12.945Z,46.80
2018-08-01T08:50:41.486Z,45.50
2018-08-01T08:53:10.323Z,45.40
2018-08-01T08:55:40.257Z,46.10
2018-08-01T08:58:08.172Z,45.90
2018-08-01T09:00:36.771Z,45.80
2018-08-01T09:03:06.111Z,46.20
2018-08-01T09:05:34.639Z,46.30
2018-08-01T09:08:02.574Z,46.20
2018-08-01T09:10:30.518Z,47.10
2018-08-01T09:12:59.280Z,45.90
2018-08-01T09:15:27.246Z,46.80
2018-08-01T09:17:56.220Z,46.80
2018-08-01T09:20:25.090Z,45.90
2018-08-01T09:22:54.581Z,47.30
2018-08-01T09:25:24.528Z,46.50
2018-08-01T09:27:54.301Z,46.10
2018-08-01T09:30:24.515Z,46.00
2018-08-01T09:32:54.652Z,46.80
2018-08-01T09:35:22.799Z,45.20
2018-08-01T09:37:51.315Z,46.10
2018-08-01T09:40:20.339Z,46.00
2018-08-01T09:42:49.182Z,46.10
2018-08-01T09:45:17.289Z,47.60
2018-08-01T09:47:47.960Z,46.50
2018-08-01T09:52:44.949Z,44.60
2018-08-01T09:55:16.790Z,44.10
2018-08-01T09:57:48.767Z,43.30
2018-08-01T10:03:57.457Z,41.90
2018-08-01T10:06:27.390Z,42.10
2018-08-01T10:08:59.062Z,41.20
2018-08-01T10:11:27.233Z,41.70
2018-08-01T10:13:55.846Z,40.60
2018-08-01T10:16:24.560Z,41.90
2018-08-01T10:18:56.524Z,42.00
2018-08-01T10:27:14.614Z,42.90
2018-08-01T10:29:43.220Z,42.00
2018-08-01T10:32:12.743Z,42.30
2018-08-01T10:34:43.361Z,40.30
2018-08-01T10:37:12.962Z,38.90
2018-08-01T10:39:41.181Z,39.00
2018-08-01T10:42:10.807Z,39.70
2018-08-01T10:44:40.231Z,39.80
2018-08-01T10:47:09.682Z,40.50
2018-08-01T10:52:08.147Z,41.50
2018-08-01T10:54:36.790Z,40.50
2018-08-01T10:59:34.544Z,40.30
2018-08-01T11:02:03.166Z,41.10
2018-08-01T11:04:32.896Z,40.80
2018-08-01T11:07:02.425Z,40.50
2018-08-01T11:09:30.974Z,39.90
2018-08-01T11:11:59.121Z,39.50
2018-08-01T11:14:27.137Z,39.50
2018-08-01T11:16:55.151Z,39.10
2018-08-01T11:19:24.464Z,38.20
2018-08-01T11:21:52.260Z,38.20
2018-08-01T11:24:21.894Z,38.10
2018-08-01T11:26:50.569Z,36.80
2018-08-01T11:29:19.167Z,35.90
2018-08-01T11:31:47.594Z,36.30
2018-08-01T11:34:16.679Z,35.30
2018-08-01T11:36:46.074Z,35.50
2018-08-01T11:39:14.415Z,35.60
2018-08-01T11:41:43.608Z,35.40
2018-08-01T11:44:12.309Z,36.10
2018-08-01T11:46:41.753Z,36.20
2018-08-01T11:49:10.411Z,37.10
2018-08-01T11:51:39.109Z,36.70
2018-08-01T11:54:09.725Z,37.30
2018-08-01T11:56:37.798Z,37.90
2018-08-01T11:59:07.871Z,37.60
2018-08-01T12:01:36.438Z,38.20
2018-08-01T12:04:06.052Z,38.40
2018-08-01T12:06:38.149Z,38.00
2018-08-01T12:09:11.901Z,38.20
2018-08-01T12:11:40.289Z,38.40
2018-08-01T12:14:09.086Z,38.90
2018-08-01T12:16:37.754Z,38.60
2018-08-01T12:19:06.629Z,38.60
2018-08-01T12:21:36.237Z,38.40
2018-08-01T12:24:04.992Z,37.90
2018-08-01T12:26:34.133Z,37.40
2018-08-01T12:29:02.995Z,37.40
2018-08-01T12:31:31.132Z,37.30
2018-08-01T12:36:31.002Z,37.70
2018-08-01T12:43:56.109Z,38.20
2018-08-01T12:46:24.756Z,37.70
2018-08-01T12:48:53.400Z,37.50
2018-08-01T12:51:22.576Z,37.60
2018-08-01T12:53:51.232Z,37.50
2018-08-01T12:56:19.897Z,38.00
2018-08-01T12:58:48.871Z,37.60
2018-08-01T13:01:17.595Z,37.60
2018-08-01T13:03:45.686Z,38.70
2018-08-01T13:06:13.683Z,39.50
2018-08-01T13:08:43.320Z,40.50
2018-08-01T13:11:11.736Z,41.20
2018-08-01T13:13:41.020Z,41.70
2018-08-01T13:16:09.572Z,41.50
2018-08-01T13:18:37.719Z,42.20
2018-08-01T13:21:06.877Z,42.50
2018-08-01T13:23:35.923Z,43.00
2018-08-01T13:26:05.047Z,42.70
2018-08-01T13:28:36.226Z,42.70
2018-08-01T13:31:06.036Z,42.50
2018-08-01T13:46:41.318Z,42.50
2018-08-01T13:49:10.962Z,42.90
2018-08-01T13:51:40.355Z,42.80
2018-08-01T13:54:09.402Z,42.90
2018-08-01T13:56:38.469Z,42.60
2018-08-01T13:59:07.826Z,42.70
2018-08-01T14:01:37.496Z,42.30
2018-08-01T14:04:06.307Z,41.80
2018-08-01T14:09:06.077Z,41.60
2018-08-01T14:11:34.180Z,41.30
2018-08-01T14:14:03.963Z,41.10
2018-08-01T14:16:31.773Z,41.20
2018-08-01T14:32:04.794Z,40.80
2018-08-01T14:34:32.926Z,41.80
2018-08-01T14:37:02.550Z,41.50
2018-08-01T14:39:32.152Z,41.70
2018-08-01T14:42:01.805Z,41.70
2018-08-01T14:44:30.795Z,41.80
2018-08-01T14:46:58.852Z,41.30
2018-08-01T14:49:27.205Z,41.90
2018-08-01T14:51:55.711Z,42.30
2018-08-01T14:54:24.354Z,42.30
2018-08-01T14:56:53.491Z,43.50
2018-08-01T14:59:25.333Z,44.30
2018-08-01T15:01:55.409Z,44.60
2018-08-01T15:04:23.452Z,45.00
2018-08-01T15:06:51.448Z,45.60
2018-08-01T15:09:21.375Z,47.50
2018-08-01T15:11:51.370Z,47.80
2018-08-01T15:14:19.313Z,48.40
2018-08-01T15:18:55.957Z,52.70
2018-08-01T15:21:23.922Z,53.00
2018-08-01T15:23:53.186Z,51.90
2018-08-01T15:26:22.727Z,51.90
2018-08-01T15:28:50.792Z,51.90
2018-08-01T15:31:19.563Z,51.90
2018-08-01T15:33:49.390Z,53.60
2018-08-01T15:36:19.823Z,53.00
2018-08-01T15:38:50.076Z,54.00
2018-08-01T15:41:18.606Z,54.30
2018-08-01T15:43:48.803Z,52.80
2018-08-01T15:46:18.108Z,52.20
2018-08-01T15:48:46.528Z,51.90
2018-08-01T15:51:16.548Z,52.30
2018-08-01T15:53:45.443Z,51.90
2018-08-01T15:56:14.645Z,51.90
2018-08-01T15:58:44.654Z,52.60
2018-08-01T16:01:15.209Z,53.40
2018-08-01T16:03:44.147Z,53.70
2018-08-01T16:23:26.811Z,56.80
2018-08-01T16:25:54.972Z,57.40
2018-08-01T16:28:23.109Z,59.00
2018-08-01T16:30:50.997Z,59.50
2018-08-01T16:33:20.609Z,60.10
2018-08-01T16:35:49.563Z,60.30
2018-08-01T16:38:19.357Z,59.80
2018-08-01T16:40:48.922Z,60.00
2018-08-01T16:43:19.305Z,59.50
2018-08-01T16:45:47.869Z,61.30
2018-08-01T16:48:16.545Z,61.00
2018-08-01T16:50:45.094Z,62.30
2018-08-01T16:55:41.624Z,62.80
2018-08-01T16:58:10.021Z,60.30
2018-08-01T17:00:40.530Z,59.30
2018-08-01T17:05:38.363Z,58.60
2018-08-01T17:08:10.813Z,58.70
2018-08-01T17:10:40.538Z,61.60
2018-08-01T17:13:08.815Z,60.30
2018-08-01T17:15:38.262Z,59.50
2018-08-01T17:18:08.244Z,59.30
2018-08-01T17:20:38.516Z,59.20
2018-08-01T17:23:07.125Z,60.80
2018-08-01T17:25:38.456Z,59.60
2018-08-01T17:28:07.124Z,60.90
2018-08-01T17:30:37.506Z,62.00
2018-08-01T17:33:06.799Z,60.80
2018-08-01T17:38:05.391Z,59.50
2018-08-01T17:40:34.078Z,60.20
2018-08-01T17:43:02.245Z,59.10
2018-08-01T17:45:31.052Z,58.10
2018-08-01T17:48:01.190Z,58.20
2018-08-01T17:52:58.460Z,57.70
2018-08-01T17:55:28.891Z,57.30
2018-08-01T17:57:58.318Z,57.20
2018-08-01T18:00:27.209Z,57.50
2018-08-01T18:02:57.122Z,57.20
2018-08-01T18:05:26.566Z,57.70
2018-08-01T18:07:57.029Z,58.40
2018-08-01T18:10:25.850Z,58.40
2018-08-01T18:12:56.040Z,58.40
2018-08-01T18:15:25.900Z,58.00
2018-08-01T18:17:54.846Z,58.20
2018-08-01T18:20:23.429Z,58.30
2018-08-01T18:22:52.728Z,58.20
2018-08-01T18:25:22.341Z,58.00
2018-08-01T18:27:51.354Z,58.10
2018-08-01T18:30:19.432Z,58.40
2018-08-01T18:32:49.582Z,58.30
2018-08-01T18:35:20.143Z,58.40
2018-08-01T18:37:48.568Z,58.20
2018-08-01T18:50:10.682Z,59.30
2018-08-01T18:52:39.619Z,59.60
2018-08-01T18:55:07.728Z,59.20
2018-08-01T18:57:35.613Z,59.10
2018-08-01T19:00:04.377Z,59.20
2018-08-01T19:02:32.917Z,59.20
2018-08-01T19:05:01.434Z,59.10
2018-08-01T19:07:30.066Z,59.10
2018-08-01T19:09:59.013Z,59.90
2018-08-01T19:12:28.364Z,60.10
2018-08-01T19:14:57.885Z,61.10
2018-08-01T19:17:27.083Z,61.60
2018-08-01T19:19:56.279Z,61.10
2018-08-01T19:22:25.032Z,60.60
2018-08-01T19:24:54.886Z,61.40
2018-08-01T19:27:27.345Z,60.60
2018-08-01T19:29:55.246Z,60.80
2018-08-01T19:32:23.561Z,60.60
2018-08-01T19:34:53.634Z,61.30
2018-08-01T19:37:22.382Z,63.50
2018-08-01T19:39:50.408Z,62.80
2018-08-01T19:42:19.614Z,62.80
2018-08-01T19:44:49.615Z,62.80
2018-08-01T19:49:49.119Z,61.50
2018-08-01T19:52:17.926Z,61.90
2018-08-01T19:54:48.276Z,61.30
2018-08-01T19:57:16.981Z,61.10
2018-08-01T19:59:46.563Z,61.40
2018-08-01T20:02:15.142Z,61.60
2018-08-01T20:04:44.177Z,61.50
2018-08-01T20:07:13.089Z,61.70
2018-08-01T20:09:42.466Z,61.70
2018-08-01T20:12:11.142Z,61.30
2018-08-01T20:14:40.542Z,60.90
2018-08-01T20:17:08.801Z,60.70
2018-08-01T20:19:37.769Z,60.70
2018-08-01T20:22:12.677Z,60.80
2018-08-01T20:24:42.863Z,60.90
2018-08-01T20:27:13.941Z,60.40
2018-08-01T20:29:42.868Z,60.30
2018-08-01T20:32:13.682Z,60.10
2018-08-01T20:34:45.306Z,59.70
2018-08-01T20:37:14.092Z,58.40
2018-08-01T20:39:45.023Z,58.20
2018-08-01T20:42:13.196Z,58.50
2018-08-01T20:44:42.464Z,58.50
2018-08-01T20:47:12.749Z,58.50
2018-08-01T20:49:41.465Z,58.70
2018-08-01T20:52:10.342Z,58.60
2018-08-01T20:54:39.083Z,58.60
2018-08-01T20:57:08.118Z,58.70
2018-08-01T20:59:37.558Z,58.70
2018-08-01T21:02:06.190Z,59.70
2018-08-01T21:04:34.297Z,59.60
2018-08-01T21:07:02.488Z,59.90
2018-08-01T21:09:31.475Z,60.60
2018-08-01T21:11:59.583Z,61.70
2018-08-01T21:14:30.205Z,61.40
2018-08-01T21:26:49.590Z,60.80
2018-08-01T21:29:18.815Z,61.10
2018-08-01T21:31:49.564Z,61.60
2018-08-01T21:34:19.703Z,62.50
2018-08-01T21:36:48.422Z,62.60
2018-08-01T21:39:18.291Z,62.50
2018-08-01T21:41:46.823Z,62.00
2018-08-01T21:46:45.184Z,61.60
2018-08-01T21:51:44.060Z,62.60
2018-08-01T21:54:14.993Z,62.50
2018-08-01T21:56:44.776Z,62.60
2018-08-01T21:59:17.428Z,62.50
2018-08-01T22:01:47.665Z,62.50
2018-08-01T22:04:16.303Z,62.50
2018-08-01T22:06:47.446Z,62.50
2018-08-01T22:11:48.772Z,63.30
2018-08-01T22:14:18.870Z,63.10
2018-08-01T22:16:48.865Z,63.10
2018-08-01T22:21:47.424Z,62.80
2018-08-01T22:24:17.992Z,62.40
2018-08-01T22:26:46.158Z,62.50
2018-08-01T22:31:45.561Z,62.50
2018-08-01T22:36:44.677Z,62.60
2018-08-01T22:39:14.171Z,62.60
2018-08-01T22:41:42.693Z,62.40
2018-08-01T22:44:11.072Z,62.40
2018-08-01T22:46:40.641Z,62.40
2018-08-01T22:49:10.134Z,62.50
2018-08-01T22:51:39.001Z,63.00
2018-08-01T22:54:07.875Z,62.50
2018-08-01T22:56:37.103Z,62.50
2018-08-01T22:59:07.515Z,62.50
2018-08-01T23:01:36.172Z,62.50
2018-08-01T23:06:33.368Z,63.30
2018-08-01T23:09:02.752Z,63.30
2018-08-01T23:11:31.991Z,63.30
2018-08-01T23:14:01.024Z,63.40
2018-08-01T23:26:20.271Z,64.30
2018-08-01T23:28:48.740Z,64.30
2018-08-01T23:31:20.462Z,64.10
2018-08-01T23:33:49.952Z,64.60
2018-08-01T23:36:20.115Z,64.50
2018-08-01T23:41:19.388Z,64.30
2018-08-01T23:46:18.275Z,64.10
2018-08-01T23:48:46.812Z,64.20
2018-08-01T23:51:17.094Z,64.30
2018-08-01T23:53:45.591Z,63.90
2018-08-01T23:56:13.641Z,63.30
2018-08-01T23:58:42.629Z,63.80
